createdAt,value
2018-04-30T00:00:31.882Z,12.60
2018-04-30T00:02:59.354Z,12.60
2018-04-30T00:05:26.896Z,12.80
2018-04-30T00:07:54.366Z,12.90
2018-04-30T00:10:21.862Z,13.40
2018-04-30T00:12:49.367Z,13.60
2018-04-30T00:15:16.904Z,13.80
2018-04-30T00:17:44.375Z,13.90
2018-04-30T00:20:11.854Z,14.00
2018-04-30T00:22:39.386Z,14.00
2018-04-30T00:25:06.891Z,14.00
2018-04-30T00:27:34.371Z,13.90
2018-04-30T00:30:02.655Z,13.60
2018-04-30T00:32:30.915Z,13.30
2018-04-30T00:34:58.390Z,13.30
2018-04-30T00:37:26.680Z,12.90
2018-04-30T00:39:54.192Z,12.90
2018-04-30T00:42:21.724Z,12.90
2018-04-30T00:44:49.186Z,12.90
2018-04-30T00:47:16.716Z,12.80
2018-04-30T00:49:44.232Z,12.70
2018-04-30T00:52:11.755Z,12.50
2018-04-30T00:54:51.096Z,12.40
2018-04-30T00:57:18.611Z,12.40
2018-04-30T00:59:46.882Z,12.40
2018-04-30T01:02:15.189Z,12.40
2018-04-30T01:04:42.653Z,12.40
2018-04-30T01:07:10.155Z,12.40
2018-04-30T01:09:38.437Z,12.30
2018-04-30T01:12:06.685Z,12.20
2018-04-30T01:14:34.187Z,12.20
2018-04-30T01:17:02.431Z,12.20
2018-04-30T01:19:29.911Z,12.20
2018-04-30T01:21:58.174Z,11.90
2018-04-30T01:24:26.463Z,11.90
2018-04-30T01:26:54.748Z,12.00
2018-04-30T01:29:23.024Z,12.10
2018-04-30T01:31:50.541Z,12.10
2018-04-30T01:34:18.031Z,12.20
2018-04-30T01:36:46.313Z,12.10
2018-04-30T01:39:13.784Z,12.00
2018-04-30T01:41:41.314Z,11.90
2018-04-30T01:44:09.570Z,11.80
2018-04-30T01:46:37.100Z,11.80
2018-04-30T01:49:04.578Z,11.80
2018-04-30T01:51:32.089Z,11.70
2018-04-30T01:53:59.608Z,11.70
2018-04-30T01:56:27.143Z,11.60
2018-04-30T01:58:54.692Z,11.50
2018-04-30T02:01:22.196Z,11.50
2018-04-30T02:03:49.729Z,11.40
2018-04-30T02:06:17.235Z,11.40
2018-04-30T02:08:44.745Z,11.40
2018-04-30T02:11:12.249Z,11.20
2018-04-30T02:13:39.778Z,11.00
2018-04-30T02:16:08.096Z,10.80
2018-04-30T02:18:35.530Z,10.80
2018-04-30T02:21:03.811Z,10.80
2018-04-30T02:23:31.306Z,10.80
2018-04-30T02:25:59.583Z,10.90
2018-04-30T02:28:27.839Z,10.90
2018-04-30T02:30:55.311Z,10.90
2018-04-30T02:33:22.836Z,10.90
2018-04-30T02:35:50.343Z,10.80
2018-04-30T02:38:17.827Z,10.70
2018-04-30T02:40:46.112Z,10.60
2018-04-30T02:43:13.656Z,10.60
2018-04-30T02:45:41.158Z,10.50
2018-04-30T02:48:08.680Z,10.50
2018-04-30T02:50:36.974Z,10.50
2018-04-30T02:53:04.455Z,10.40
2018-04-30T02:55:31.930Z,10.40
2018-04-30T02:57:59.465Z,10.30
2018-04-30T03:00:26.971Z,10.30
2018-04-30T03:02:54.450Z,10.20
2018-04-30T03:05:22.690Z,10.20
2018-04-30T03:07:50.180Z,10.10
2018-04-30T03:10:18.452Z,10.40
2018-04-30T03:12:46.754Z,10.40
2018-04-30T03:15:14.222Z,10.40
2018-04-30T03:17:41.772Z,10.40
2018-04-30T03:20:09.243Z,10.40
2018-04-30T03:22:36.724Z,10.40
2018-04-30T03:25:04.211Z,10.40
2018-04-30T03:27:32.451Z,10.20
2018-04-30T03:29:59.977Z,10.10
2018-04-30T03:32:27.456Z,10.00
2018-04-30T03:34:54.971Z,9.90
2018-04-30T03:37:23.210Z,10.30
2018-04-30T03:39:50.704Z,10.30
2018-04-30T03:42:18.947Z,10.20
2018-04-30T03:44:46.422Z,10.20
2018-04-30T03:47:14.699Z,10.10
2018-04-30T03:49:42.235Z,10.10
2018-04-30T03:52:09.733Z,10.10
2018-04-30T03:54:37.255Z,10.10
2018-04-30T03:57:04.771Z,10.00
2018-04-30T03:59:32.259Z,10.00
2018-04-30T04:02:11.582Z,10.00
2018-04-30T04:04:50.986Z,10.10
2018-04-30T04:07:18.500Z,10.10
2018-04-30T04:09:46.021Z,10.70
2018-04-30T04:12:13.490Z,11.20
2018-04-30T04:14:40.966Z,11.60
2018-04-30T04:17:08.472Z,12.00
2018-04-30T04:19:35.998Z,12.50
2018-04-30T04:22:03.462Z,12.80
2018-04-30T04:24:31.712Z,13.20
2018-04-30T04:26:59.186Z,13.10
2018-04-30T04:29:27.478Z,13.40
2018-04-30T04:31:55.747Z,13.30
2018-04-30T04:34:23.219Z,13.40
2018-04-30T04:36:50.724Z,13.50
2018-04-30T04:39:18.244Z,13.60
2018-04-30T04:41:45.784Z,13.70
2018-04-30T04:44:14.020Z,14.00
2018-04-30T04:46:41.492Z,13.90
2018-04-30T04:49:09.804Z,14.20
2018-04-30T04:51:38.033Z,14.30
2018-04-30T04:54:05.519Z,14.30
2018-04-30T04:56:33.786Z,14.50
2018-04-30T04:59:01.258Z,14.50
2018-04-30T05:01:29.547Z,14.60
2018-04-30T05:03:57.011Z,14.60
2018-04-30T05:06:24.496Z,14.60
2018-04-30T05:08:52.008Z,14.80
2018-04-30T05:11:20.251Z,15.10
2018-04-30T05:13:47.727Z,15.10
2018-04-30T05:16:15.239Z,15.10
2018-04-30T05:18:42.749Z,15.30
2018-04-30T05:21:11.036Z,15.00
2018-04-30T05:23:39.263Z,15.40
2018-04-30T05:26:08.305Z,16.00
2018-04-30T05:28:35.761Z,16.10
2018-04-30T05:31:04.075Z,16.00
2018-04-30T05:33:31.572Z,16.00
2018-04-30T05:35:59.050Z,17.10
2018-04-30T05:38:27.356Z,16.90
2018-04-30T05:40:54.871Z,16.80
2018-04-30T05:43:22.387Z,16.30
2018-04-30T05:45:49.892Z,15.90
2018-04-30T05:48:18.164Z,15.00
2018-04-30T05:50:45.672Z,14.90
2018-04-30T05:53:13.188Z,14.90
2018-04-30T05:55:41.597Z,14.70
2018-04-30T05:58:09.100Z,15.10
2018-04-30T06:00:36.974Z,15.20
2018-04-30T06:03:04.402Z,15.10
2018-04-30T06:05:31.899Z,15.00
2018-04-30T06:08:00.171Z,14.90
2018-04-30T06:10:28.433Z,15.20
2018-04-30T06:12:55.951Z,15.20
2018-04-30T06:15:23.479Z,15.70
2018-04-30T06:17:51.749Z,16.70
2018-04-30T06:20:22.041Z,17.20
2018-04-30T06:22:49.557Z,17.20
2018-04-30T06:25:17.195Z,17.40
2018-04-30T06:27:45.442Z,17.90
2018-04-30T06:30:12.940Z,17.90
2018-04-30T06:32:40.446Z,17.70
2018-04-30T06:35:07.924Z,16.70
2018-04-30T06:37:36.191Z,15.80
2018-04-30T06:40:03.729Z,15.80
2018-04-30T06:42:31.231Z,15.50
2018-04-30T06:44:59.508Z,15.30
2018-04-30T06:47:27.799Z,15.50
2018-04-30T06:49:55.305Z,15.50
2018-04-30T06:52:22.810Z,15.40
2018-04-30T06:54:50.274Z,15.30
2018-04-30T06:57:17.815Z,15.10
2018-04-30T06:59:45.338Z,15.70
2018-04-30T07:02:12.861Z,17.10
2018-04-30T07:04:40.358Z,17.60
2018-04-30T07:07:07.877Z,17.30
2018-04-30T07:09:35.495Z,16.70
2018-04-30T07:12:02.896Z,15.80
2018-04-30T07:14:30.398Z,15.30
2018-04-30T07:16:57.924Z,15.20
2018-04-30T07:19:25.399Z,14.90
2018-04-30T07:21:52.889Z,14.60
2018-04-30T07:24:21.190Z,15.20
2018-04-30T07:26:48.668Z,15.10
2018-04-30T07:29:16.141Z,16.50
2018-04-30T07:31:43.636Z,18.50
2018-04-30T07:34:11.908Z,22.50
2018-04-30T07:36:40.171Z,22.50
2018-04-30T07:39:07.731Z,22.50
2018-04-30T07:41:35.178Z,22.00
2018-04-30T07:44:02.650Z,22.70
2018-04-30T07:46:30.967Z,22.60
2018-04-30T07:48:58.510Z,22.60
2018-04-30T07:51:26.024Z,22.60
2018-04-30T07:53:53.589Z,20.40
2018-04-30T07:56:21.093Z,20.40
2018-04-30T07:58:48.598Z,21.70
2018-04-30T08:01:16.133Z,19.70
2018-04-30T08:03:43.670Z,18.80
2018-04-30T08:06:11.148Z,17.80
2018-04-30T08:08:38.637Z,17.50
2018-04-30T08:11:06.177Z,16.70
2018-04-30T08:13:33.692Z,16.70
2018-04-30T08:16:01.225Z,16.60
2018-04-30T08:18:29.528Z,15.10
2018-04-30T08:20:57.014Z,15.10
2018-04-30T08:23:36.974Z,14.90
2018-04-30T08:26:04.488Z,15.30
2018-04-30T08:28:32.780Z,16.30
2018-04-30T08:31:00.301Z,16.30
2018-04-30T08:33:27.831Z,16.80
2018-04-30T08:35:55.360Z,16.50
2018-04-30T08:38:22.847Z,16.50
2018-04-30T08:40:50.315Z,16.70
2018-04-30T08:43:17.832Z,17.00
2018-04-30T08:45:45.325Z,17.50
2018-04-30T08:48:12.815Z,17.80
2018-04-30T08:50:40.316Z,17.40
2018-04-30T08:53:07.804Z,16.20
2018-04-30T08:55:35.279Z,16.30
2018-04-30T08:58:02.769Z,16.20
2018-04-30T09:00:31.113Z,16.30
2018-04-30T09:02:58.545Z,16.30
2018-04-30T09:05:26.078Z,16.10
2018-04-30T09:07:53.598Z,16.00
2018-04-30T09:10:21.096Z,14.90
2018-04-30T09:12:48.567Z,14.50
2018-04-30T09:15:16.100Z,14.30
2018-04-30T09:17:43.617Z,14.20
2018-04-30T09:20:11.144Z,14.30
2018-04-30T09:22:38.607Z,14.20
2018-04-30T09:25:06.147Z,14.10
2018-04-30T09:27:33.720Z,14.40
2018-04-30T09:30:01.258Z,14.60
2018-04-30T09:32:28.777Z,14.80
2018-04-30T09:34:56.296Z,14.90
2018-04-30T09:37:23.768Z,15.30
2018-04-30T09:39:51.287Z,16.00
2018-04-30T09:42:18.794Z,16.50
2018-04-30T09:44:46.283Z,16.80
2018-04-30T09:47:14.531Z,16.90
2018-04-30T09:49:42.021Z,16.90
2018-04-30T09:52:09.498Z,17.10
2018-04-30T09:54:36.999Z,16.60
2018-04-30T09:57:04.461Z,15.90
2018-04-30T09:59:31.954Z,16.00
2018-04-30T10:01:59.427Z,15.90
2018-04-30T10:04:26.902Z,15.40
2018-04-30T10:06:54.431Z,14.80
2018-04-30T10:09:21.932Z,14.60
2018-04-30T10:11:49.407Z,14.50
2018-04-30T10:14:16.890Z,14.70
2018-04-30T10:16:45.135Z,15.40
2018-04-30T10:19:12.623Z,15.40
2018-04-30T10:21:40.136Z,15.50
2018-04-30T10:24:08.379Z,16.60
2018-04-30T10:26:35.863Z,16.60
2018-04-30T10:29:03.435Z,16.20
2018-04-30T10:31:31.734Z,15.40
2018-04-30T10:33:59.200Z,15.40
2018-04-30T10:36:27.511Z,15.30
2018-04-30T10:38:55.037Z,15.30
2018-04-30T10:41:23.376Z,15.30
2018-04-30T10:43:50.850Z,15.20
2018-04-30T10:46:18.384Z,15.50
2018-04-30T10:48:45.846Z,15.20
2018-04-30T10:51:13.364Z,14.80
2018-04-30T10:53:40.869Z,14.50
2018-04-30T10:56:08.356Z,14.60
2018-04-30T10:58:36.602Z,14.80
2018-04-30T11:01:04.127Z,14.80
2018-04-30T11:03:31.619Z,15.20
2018-04-30T11:05:59.158Z,15.40
2018-04-30T11:08:26.623Z,15.50
2018-04-30T11:10:54.140Z,15.30
2018-04-30T11:13:21.600Z,14.90
2018-04-30T11:15:49.103Z,14.70
2018-04-30T11:18:16.577Z,14.50
2018-04-30T11:20:44.065Z,14.50
2018-04-30T11:23:11.539Z,15.10
2018-04-30T11:25:39.053Z,15.50
2018-04-30T11:28:07.286Z,15.80
2018-04-30T11:30:35.539Z,16.00
2018-04-30T11:33:03.052Z,16.00
2018-04-30T11:35:31.347Z,16.90
2018-04-30T11:37:58.879Z,16.90
2018-04-30T11:40:26.388Z,17.00
2018-04-30T11:42:53.885Z,16.60
2018-04-30T11:45:21.362Z,16.60
2018-04-30T11:47:49.631Z,16.40
2018-04-30T11:50:17.148Z,16.40
2018-04-30T11:52:44.696Z,16.10
2018-04-30T11:55:12.223Z,16.20
2018-04-30T11:57:40.528Z,16.00
2018-04-30T12:00:08.026Z,16.00
2018-04-30T12:02:35.523Z,15.80
2018-04-30T12:05:03.070Z,15.60
2018-04-30T12:07:30.564Z,15.80
2018-04-30T12:09:58.100Z,15.70
2018-04-30T12:12:25.523Z,15.70
2018-04-30T12:14:53.008Z,15.80
2018-04-30T12:17:20.497Z,15.90
2018-04-30T12:19:47.980Z,16.00
2018-04-30T12:22:15.586Z,16.00
2018-04-30T12:24:43.038Z,16.00
2018-04-30T12:27:10.584Z,15.90
2018-04-30T12:29:38.881Z,15.90
2018-04-30T12:32:09.051Z,15.80
2018-04-30T12:34:36.668Z,15.70
2018-04-30T12:37:04.164Z,15.80
2018-04-30T12:39:31.666Z,15.70
2018-04-30T12:41:59.978Z,15.90
2018-04-30T12:44:27.496Z,15.80
2018-04-30T12:46:55.055Z,15.90
2018-04-30T12:49:23.365Z,16.10
2018-04-30T12:51:50.900Z,16.10
2018-04-30T12:54:18.416Z,16.20
2018-04-30T12:56:45.960Z,16.10
2018-04-30T12:59:13.492Z,16.00
2018-04-30T13:01:41.033Z,16.00
2018-04-30T13:04:08.597Z,16.20
2018-04-30T13:06:36.111Z,16.70
2018-04-30T13:09:03.711Z,16.90
2018-04-30T13:11:31.212Z,16.90
2018-04-30T13:13:58.743Z,17.00
2018-04-30T13:16:26.271Z,17.00
2018-04-30T13:18:53.813Z,16.80
2018-04-30T13:21:21.294Z,16.60
2018-04-30T13:23:49.583Z,16.50
2018-04-30T13:26:17.075Z,16.50
2018-04-30T13:28:44.567Z,16.50
2018-04-30T13:31:12.086Z,16.50
2018-04-30T13:33:39.620Z,16.40
2018-04-30T13:36:07.126Z,16.50
2018-04-30T13:38:34.646Z,16.50
2018-04-30T13:41:02.111Z,16.60
2018-04-30T13:43:30.191Z,16.70
2018-04-30T13:45:57.714Z,16.90
2018-04-30T13:48:26.016Z,17.00
2018-04-30T13:50:53.479Z,17.00
2018-04-30T13:53:20.974Z,17.10
2018-04-30T13:55:49.222Z,17.10
2018-04-30T13:58:16.808Z,17.10
2018-04-30T14:00:44.305Z,17.00
2018-04-30T14:03:11.793Z,17.00
2018-04-30T14:05:39.299Z,17.10
2018-04-30T14:08:07.552Z,17.30
2018-04-30T14:10:35.019Z,17.40
2018-04-30T14:13:02.509Z,17.50
2018-04-30T14:15:30.046Z,17.50
2018-04-30T14:17:58.311Z,17.80
2018-04-30T14:20:26.580Z,17.70
2018-04-30T14:22:54.074Z,17.70
2018-04-30T14:25:21.601Z,17.60
2018-04-30T14:27:49.156Z,17.50
2018-04-30T14:30:16.674Z,17.70
2018-04-30T14:32:44.189Z,17.90
2018-04-30T14:35:12.460Z,18.30
2018-04-30T14:37:40.737Z,18.30
2018-04-30T14:40:08.989Z,18.20
2018-04-30T14:42:36.518Z,18.20
2018-04-30T14:45:04.011Z,18.00
2018-04-30T14:47:31.474Z,17.90
2018-04-30T14:49:59.055Z,17.90
2018-04-30T14:52:27.343Z,18.10
2018-04-30T14:54:54.877Z,18.00
2018-04-30T14:57:23.161Z,18.00
2018-04-30T14:59:51.456Z,17.70
2018-04-30T15:02:18.923Z,17.70
2018-04-30T15:04:46.439Z,17.70
2018-04-30T15:07:13.956Z,17.80
2018-04-30T15:09:41.472Z,17.80
2018-04-30T15:12:08.999Z,17.70
2018-04-30T15:14:36.484Z,17.70
2018-04-30T15:17:04.009Z,17.70
2018-04-30T15:19:31.614Z,17.70
2018-04-30T15:21:59.056Z,17.70
2018-04-30T15:24:27.349Z,17.70
2018-04-30T15:26:54.877Z,17.70
2018-04-30T15:29:22.358Z,17.60
2018-04-30T15:31:49.849Z,17.60
2018-04-30T15:34:17.340Z,17.60
2018-04-30T15:36:45.026Z,17.40
2018-04-30T15:39:12.590Z,17.40
2018-04-30T15:41:40.842Z,17.60
2018-04-30T15:44:08.315Z,17.50
2018-04-30T15:46:36.571Z,17.60
2018-04-30T15:49:04.106Z,17.60
2018-04-30T15:51:31.613Z,17.50
2018-04-30T15:53:59.960Z,17.60
2018-04-30T15:56:27.451Z,17.60
2018-04-30T15:58:54.980Z,17.70
2018-04-30T16:01:22.534Z,17.60
2018-04-30T16:03:50.060Z,17.60
2018-04-30T16:06:17.601Z,17.50
2018-04-30T16:08:45.091Z,17.10
2018-04-30T16:11:12.610Z,16.90
2018-04-30T16:13:40.151Z,16.70
2018-04-30T16:16:08.447Z,16.70
2018-04-30T16:18:35.919Z,16.70
2018-04-30T16:21:03.438Z,16.80
2018-04-30T16:23:30.994Z,16.80
2018-04-30T16:25:59.278Z,16.80
2018-04-30T16:28:27.573Z,16.80
2018-04-30T16:30:55.057Z,16.80
2018-04-30T16:33:22.541Z,16.80
2018-04-30T16:35:50.036Z,16.90
2018-04-30T16:38:17.553Z,17.00
2018-04-30T16:40:45.101Z,16.90
2018-04-30T16:43:12.615Z,16.90
2018-04-30T16:45:40.110Z,16.90
2018-04-30T16:48:07.629Z,16.90
2018-04-30T16:50:35.142Z,16.90
2018-04-30T16:53:02.840Z,16.80
2018-04-30T16:55:30.220Z,16.80
2018-04-30T16:57:57.707Z,16.70
2018-04-30T17:00:25.197Z,16.50
2018-04-30T17:02:53.462Z,16.30
2018-04-30T17:05:21.000Z,16.30
2018-04-30T17:07:48.479Z,16.30
2018-04-30T17:10:15.997Z,16.20
2018-04-30T17:12:43.488Z,16.20
2018-04-30T17:15:10.988Z,16.20
2018-04-30T17:17:38.457Z,16.10
2018-04-30T17:20:06.016Z,16.10
2018-04-30T17:22:33.538Z,16.20
2018-04-30T17:25:01.824Z,16.20
2018-04-30T17:27:29.312Z,16.20
2018-04-30T17:29:56.831Z,16.10
2018-04-30T17:32:24.377Z,16.00
2018-04-30T17:34:51.878Z,15.90
2018-04-30T17:37:19.403Z,15.80
2018-04-30T17:39:46.904Z,15.60
2018-04-30T17:42:14.425Z,15.50
2018-04-30T17:44:42.695Z,15.30
2018-04-30T17:53:56.784Z,15.20
2018-04-30T17:56:25.167Z,15.20
2018-04-30T17:58:53.487Z,15.10
2018-04-30T18:01:20.893Z,15.10
2018-04-30T18:03:49.163Z,14.90
2018-04-30T18:06:17.454Z,14.80
2018-04-30T18:08:45.681Z,14.60
2018-04-30T18:11:13.987Z,14.50
2018-04-30T18:13:42.272Z,14.30
2018-04-30T18:16:10.498Z,14.20
2018-04-30T18:18:38.785Z,14.00
2018-04-30T18:21:06.247Z,14.00
2018-04-30T18:23:33.739Z,13.90
2018-04-30T18:26:01.966Z,13.70
2018-04-30T18:28:29.446Z,13.70
2018-04-30T18:30:56.952Z,13.50
2018-04-30T18:33:24.450Z,13.50
2018-04-30T18:35:51.940Z,13.40
2018-04-30T18:38:20.223Z,13.40
2018-04-30T18:40:48.451Z,13.30
2018-04-30T18:43:15.929Z,13.30
2018-04-30T18:45:43.423Z,13.20
2018-04-30T18:48:10.894Z,13.10
2018-04-30T18:50:38.372Z,13.00
2018-04-30T18:53:05.895Z,13.00
2018-04-30T18:55:33.641Z,13.00
2018-04-30T18:58:01.931Z,13.10
2018-04-30T19:00:29.431Z,13.10
2018-04-30T19:02:56.932Z,13.10
2018-04-30T19:05:25.201Z,13.10
2018-04-30T19:07:53.493Z,13.10
2018-04-30T19:10:21.722Z,13.10
2018-04-30T19:12:49.245Z,13.10
2018-04-30T19:15:16.711Z,13.10
2018-04-30T19:17:44.227Z,13.10
2018-04-30T19:20:12.558Z,13.20
2018-04-30T19:22:40.751Z,13.30
2018-04-30T19:25:08.257Z,13.30
2018-04-30T19:27:35.813Z,13.30
2018-04-30T19:30:03.282Z,13.30
2018-04-30T19:32:30.772Z,13.20
2018-04-30T19:34:58.287Z,13.20
2018-04-30T19:37:25.785Z,13.20
2018-04-30T19:39:53.293Z,13.10
2018-04-30T19:42:21.531Z,13.10
2018-04-30T19:44:49.065Z,13.10
2018-04-30T19:47:16.564Z,13.00
2018-04-30T19:49:44.083Z,13.00
2018-04-30T19:52:11.553Z,12.90
2018-04-30T19:54:39.067Z,12.80
2018-04-30T19:57:06.526Z,12.60
2018-04-30T19:59:34.064Z,12.60
2018-04-30T20:02:02.339Z,12.50
2018-04-30T20:04:30.579Z,12.50
2018-04-30T20:06:58.842Z,12.60
2018-04-30T20:09:26.356Z,12.60
2018-04-30T20:11:54.585Z,12.50
2018-04-30T20:14:22.398Z,12.50
2018-04-30T20:16:49.905Z,12.50
2018-04-30T20:19:17.407Z,12.40
2018-04-30T20:21:45.676Z,12.30
2018-04-30T20:24:13.933Z,12.30
2018-04-30T20:26:41.437Z,12.30
2018-04-30T20:29:09.011Z,12.40
2018-04-30T20:31:36.511Z,12.40
2018-04-30T20:34:03.977Z,12.50
2018-04-30T20:36:32.224Z,12.60
2018-04-30T20:38:59.743Z,12.60
2018-04-30T20:41:27.203Z,12.60
2018-04-30T20:43:54.753Z,12.50
2018-04-30T20:46:22.214Z,12.50
2018-04-30T20:48:49.770Z,12.60
2018-04-30T20:51:17.231Z,12.50
2018-04-30T20:53:44.702Z,12.50
2018-04-30T20:56:12.208Z,12.50
2018-04-30T20:58:39.703Z,12.40
2018-04-30T21:01:07.214Z,12.50
2018-04-30T21:03:34.688Z,12.50
2018-04-30T21:06:02.973Z,12.40
2018-04-30T21:08:53.693Z,12.40
2018-04-30T21:11:21.186Z,12.40
2018-04-30T21:13:48.649Z,12.30
2018-04-30T21:16:16.156Z,12.20
2018-04-30T21:18:44.434Z,12.30
2018-04-30T21:21:12.712Z,12.40
2018-04-30T21:23:40.218Z,12.40
2018-04-30T21:26:07.739Z,12.40
2018-04-30T21:28:35.201Z,12.40
2018-04-30T21:31:02.732Z,12.40
2018-04-30T21:33:31.567Z,12.30
2018-04-30T21:35:59.053Z,12.30
2018-04-30T21:38:26.541Z,12.40
2018-04-30T21:40:54.022Z,12.50
2018-04-30T21:43:21.589Z,12.50
2018-04-30T21:45:49.103Z,12.50
2018-04-30T21:48:16.609Z,12.60
2018-04-30T21:50:44.082Z,12.60
2018-04-30T21:53:11.537Z,12.60
2018-04-30T21:55:39.028Z,12.60
2018-04-30T21:58:07.254Z,12.40
2018-04-30T22:00:34.868Z,12.40
2018-04-30T22:03:02.257Z,12.30
2018-04-30T22:05:29.800Z,12.20
2018-04-30T22:07:57.303Z,12.10
2018-04-30T22:10:24.780Z,12.00
2018-04-30T22:12:52.285Z,11.80
2018-04-30T22:15:19.763Z,11.80
2018-04-30T22:17:47.268Z,11.90
2018-04-30T22:20:15.514Z,12.00
2018-04-30T22:22:43.031Z,12.00
2018-04-30T22:25:10.494Z,12.10
2018-04-30T22:27:38.017Z,12.20
2018-04-30T22:30:06.278Z,12.10
2018-04-30T22:32:33.791Z,12.10
2018-04-30T22:35:01.291Z,12.10
2018-04-30T22:37:28.799Z,12.10
2018-04-30T22:39:56.304Z,12.10
2018-04-30T22:42:23.835Z,12.00
2018-04-30T22:44:52.104Z,11.90
2018-04-30T22:47:19.570Z,11.90
2018-04-30T22:49:47.072Z,11.90
2018-04-30T22:52:15.349Z,11.70
2018-04-30T22:54:43.582Z,11.70
2018-04-30T22:57:11.063Z,11.70
2018-04-30T22:59:38.523Z,11.60
2018-04-30T23:02:06.803Z,11.50
2018-04-30T23:04:35.068Z,11.50
2018-04-30T23:07:02.541Z,11.40
2018-04-30T23:09:30.824Z,11.30
2018-04-30T23:11:59.104Z,11.30
2018-04-30T23:14:26.595Z,11.30
2018-04-30T23:16:54.070Z,11.40
2018-04-30T23:19:21.611Z,11.40
2018-04-30T23:21:49.089Z,11.50
2018-04-30T23:24:16.599Z,11.50
2018-04-30T23:26:44.116Z,11.50
2018-04-30T23:29:11.628Z,11.50
2018-04-30T23:31:39.140Z,11.50
2018-04-30T23:34:06.598Z,11.40
2018-04-30T23:36:34.884Z,11.40
2018-04-30T23:39:03.263Z,11.40
2018-04-30T23:41:31.506Z,11.40
2018-04-30T23:43:58.975Z,11.40
2018-04-30T23:46:26.515Z,11.40
2018-04-30T23:48:54.008Z,11.30
2018-04-30T23:51:22.292Z,11.20
2018-04-30T23:53:50.521Z,11.10
2018-04-30T23:56:18.011Z,11.10
2018-04-30T23:58:46.284Z,10.90
